sensor_id;sensor_type;location;lat;lon;timestamp;pressure;altitude;pressure_sealevel;temperature;humidity
3598;BME280;1813;52.016;8.714;2023-02-04T00:01:19;-16261.94;;;-139.71;72.57
3598;BME280;1813;52.016;8.714;2023-02-04T00:03:53;-16261.94;;;-139.71;72.59
3598;BME280;1813;52.016;8.714;2023-02-04T00:06:29;-16261.94;;;-139.71;72.69
3598;BME280;1813;52.016;8.714;2023-02-04T00:09:04;-16261.94;;;-139.71;72.82
3598;BME280;1813;52.016;8.714;2023-02-04T00:11:40;-16261.94;;;-139.71;72.68
3598;BME280;1813;52.016;8.714;2023-02-04T00:14:15;-16261.94;;;-139.71;72.87
3598;BME280;1813;52.016;8.714;2023-02-04T00:16:48;-16261.94;;;-139.71;72.87
3598;BME280;1813;52.016;8.714;2023-02-04T00:19:22;-16261.94;;;-139.71;73.01
3598;BME280;1813;52.016;8.714;2023-02-04T00:21:58;-16261.94;;;-139.71;73.02
3598;BME280;1813;52.016;8.714;2023-02-04T00:24:33;-16261.94;;;-139.71;72.94
3598;BME280;1813;52.016;8.714;2023-02-04T00:27:10;-16261.94;;;-139.71;72.96
3598;BME280;1813;52.016;8.714;2023-02-04T00:29:43;-16261.94;;;-139.71;72.98
3598;BME280;1813;52.016;8.714;2023-02-04T00:32:17;-16261.94;;;-139.71;73.17
3598;BME280;1813;52.016;8.714;2023-02-04T00:34:51;-16261.94;;;-139.71;73.33
3598;BME280;1813;52.016;8.714;2023-02-04T00:37:25;-16261.94;;;-139.71;73.48
3598;BME280;1813;52.016;8.714;2023-02-04T00:39:58;-16261.94;;;-139.71;73.49
3598;BME280;1813;52.016;8.714;2023-02-04T00:42:36;-16261.94;;;-139.71;73.54
3598;BME280;1813;52.016;8.714;2023-02-04T00:45:10;-16261.94;;;-139.71;73.63
3598;BME280;1813;52.016;8.714;2023-02-04T00:47:45;-16261.94;;;-139.71;73.78
3598;BME280;1813;52.016;8.714;2023-02-04T00:50:19;-16261.94;;;-139.71;74.09
3598;BME280;1813;52.016;8.714;2023-02-04T00:52:52;-16261.94;;;-139.71;74.18
3598;BME280;1813;52.016;8.714;2023-02-04T00:55:27;-16261.94;;;-139.71;74.22
3598;BME280;1813;52.016;8.714;2023-02-04T00:58:03;-16261.94;;;-139.71;74.30
3598;BME280;1813;52.016;8.714;2023-02-04T01:00:37;-16261.94;;;-139.71;74.30
3598;BME280;1813;52.016;8.714;2023-02-04T01:03:11;-16261.94;;;-139.71;74.28
3598;BME280;1813;52.016;8.714;2023-02-04T01:05:45;-16261.94;;;-139.71;74.45
3598;BME280;1813;52.016;8.714;2023-02-04T01:08:18;-16261.94;;;-139.71;74.42
3598;BME280;1813;52.016;8.714;2023-02-04T01:10:52;-16261.94;;;-139.71;74.51
3598;BME280;1813;52.016;8.714;2023-02-04T01:13:29;-16261.94;;;-139.71;74.38
3598;BME280;1813;52.016;8.714;2023-02-04T01:16:02;-16261.94;;;-139.71;74.56
3598;BME280;1813;52.016;8.714;2023-02-04T01:18:36;-16261.94;;;-139.71;74.62
3598;BME280;1813;52.016;8.714;2023-02-04T01:21:12;-16261.94;;;-139.71;74.83
3598;BME280;1813;52.016;8.714;2023-02-04T01:23:46;-16261.94;;;-139.71;74.74
3598;BME280;1813;52.016;8.714;2023-02-04T01:26:20;-16261.94;;;-139.71;74.72
3598;BME280;1813;52.016;8.714;2023-02-04T01:28:56;-16261.94;;;-139.71;74.86
3598;BME280;1813;52.016;8.714;2023-02-04T01:31:30;-16261.94;;;-139.71;74.93
3598;BME280;1813;52.016;8.714;2023-02-04T01:34:09;-16261.94;;;-139.71;74.84
3598;BME280;1813;52.016;8.714;2023-02-04T01:36:43;-16261.94;;;-139.71;75.04
3598;BME280;1813;52.016;8.714;2023-02-04T01:39:16;-16261.94;;;-139.71;75.06
3598;BME280;1813;52.016;8.714;2023-02-04T01:41:51;-16261.94;;;-139.71;75.26
3598;BME280;1813;52.016;8.714;2023-02-04T01:44:27;-16261.94;;;-139.71;75.36
3598;BME280;1813;52.016;8.714;2023-02-04T01:47:02;-16261.94;;;-139.71;75.41
3598;BME280;1813;52.016;8.714;2023-02-04T01:49:36;-16261.94;;;-139.71;75.39
3598;BME280;1813;52.016;8.714;2023-02-04T01:52:11;-16261.94;;;-139.71;75.33
3598;BME280;1813;52.016;8.714;2023-02-04T01:54:45;-16261.94;;;-139.71;75.46
3598;BME280;1813;52.016;8.714;2023-02-04T01:57:20;-16261.94;;;-139.71;75.41
3598;BME280;1813;52.016;8.714;2023-02-04T01:59:57;-16261.94;;;-139.71;75.49
3598;BME280;1813;52.016;8.714;2023-02-04T02:02:39;-16261.94;;;-139.71;75.51
3598;BME280;1813;52.016;8.714;2023-02-04T02:05:16;-16261.94;;;-139.71;75.63
3598;BME280;1813;52.016;8.714;2023-02-04T02:07:52;-16261.94;;;-139.71;75.78
3598;BME280;1813;52.016;8.714;2023-02-04T02:10:27;-16261.94;;;-139.71;75.59
3598;BME280;1813;52.016;8.714;2023-02-04T02:13:00;-16261.94;;;-139.71;75.59
3598;BME280;1813;52.016;8.714;2023-02-04T02:15:37;-16261.94;;;-139.71;75.46
3598;BME280;1813;52.016;8.714;2023-02-04T02:18:11;-16261.94;;;-139.71;75.31
3598;BME280;1813;52.016;8.714;2023-02-04T02:20:45;-16261.94;;;-139.71;75.28
3598;BME280;1813;52.016;8.714;2023-02-04T02:23:25;-16261.94;;;-139.71;75.14
3598;BME280;1813;52.016;8.714;2023-02-04T02:26:02;-16261.94;;;-139.71;75.20
3598;BME280;1813;52.016;8.714;2023-02-04T02:28:36;-16261.94;;;-139.71;75.26
3598;BME280;1813;52.016;8.714;2023-02-04T02:31:09;-16261.94;;;-139.71;75.20
3598;BME280;1813;52.016;8.714;2023-02-04T02:33:45;-16261.94;;;-139.71;75.24
3598;BME280;1813;52.016;8.714;2023-02-04T02:36:20;-16261.94;;;-139.71;75.19
3598;BME280;1813;52.016;8.714;2023-02-04T02:38:55;-16261.94;;;-139.71;75.31
3598;BME280;1813;52.016;8.714;2023-02-04T02:41:33;-16261.94;;;-139.71;75.28
3598;BME280;1813;52.016;8.714;2023-02-04T02:44:08;-16261.94;;;-139.71;75.15
3598;BME280;1813;52.016;8.714;2023-02-04T02:46:42;-16261.94;;;-139.71;75.25
3598;BME280;1813;52.016;8.714;2023-02-04T02:49:19;-16261.94;;;-139.71;75.12
3598;BME280;1813;52.016;8.714;2023-02-04T02:51:53;-16261.94;;;-139.71;75.15
3598;BME280;1813;52.016;8.714;2023-02-04T02:54:29;-16261.94;;;-139.71;75.16
3598;BME280;1813;52.016;8.714;2023-02-04T02:57:13;-16261.94;;;-139.71;74.91
3598;BME280;1813;52.016;8.714;2023-02-04T02:59:48;-16261.94;;;-139.71;74.82
3598;BME280;1813;52.016;8.714;2023-02-04T03:02:23;-16261.94;;;-139.71;74.61
3598;BME280;1813;52.016;8.714;2023-02-04T03:04:58;-16261.94;;;-139.71;74.65
3598;BME280;1813;52.016;8.714;2023-02-04T03:07:35;-16261.94;;;-139.71;74.50
3598;BME280;1813;52.016;8.714;2023-02-04T03:10:09;-16261.94;;;-139.71;74.47
3598;BME280;1813;52.016;8.714;2023-02-04T03:12:46;-16261.94;;;-139.71;74.35
3598;BME280;1813;52.016;8.714;2023-02-04T03:15:20;-16261.94;;;-139.71;74.36
3598;BME280;1813;52.016;8.714;2023-02-04T03:17:56;-16261.94;;;-139.71;73.76
3598;BME280;1813;52.016;8.714;2023-02-04T03:20:31;-16261.94;;;-139.71;73.27
3598;BME280;1813;52.016;8.714;2023-02-04T03:23:06;-16261.94;;;-139.71;72.66
3598;BME280;1813;52.016;8.714;2023-02-04T03:25:40;-16261.94;;;-139.71;71.96
3598;BME280;1813;52.016;8.714;2023-02-04T03:28:17;-16261.94;;;-139.71;71.38
3598;BME280;1813;52.016;8.714;2023-02-04T03:30:51;-16261.94;;;-139.71;71.02
3598;BME280;1813;52.016;8.714;2023-02-04T03:33:27;-16261.94;;;-139.71;70.46
3598;BME280;1813;52.016;8.714;2023-02-04T03:36:02;-16261.94;;;-139.71;70.21
3598;BME280;1813;52.016;8.714;2023-02-04T03:38:36;-16261.94;;;-139.71;70.18
3598;BME280;1813;52.016;8.714;2023-02-04T03:41:10;-16261.94;;;-139.71;70.04
3598;BME280;1813;52.016;8.714;2023-02-04T03:43:49;-16261.94;;;-139.71;69.96
3598;BME280;1813;52.016;8.714;2023-02-04T03:46:22;-16261.94;;;-139.71;69.90
3598;BME280;1813;52.016;8.714;2023-02-04T03:48:58;-16261.94;;;-139.71;69.73
3598;BME280;1813;52.016;8.714;2023-02-04T03:51:32;-16261.94;;;-139.71;69.68
3598;BME280;1813;52.016;8.714;2023-02-04T03:54:06;-16261.94;;;-139.71;69.61
3598;BME280;1813;52.016;8.714;2023-02-04T03:56:40;-16261.94;;;-139.71;69.57
3598;BME280;1813;52.016;8.714;2023-02-04T03:59:17;-16261.94;;;-139.71;69.57
3598;BME280;1813;52.016;8.714;2023-02-04T04:01:52;-16261.94;;;-139.71;69.59
3598;BME280;1813;52.016;8.714;2023-02-04T04:04:26;-16261.94;;;-139.71;69.23
3598;BME280;1813;52.016;8.714;2023-02-04T04:06:59;-16261.94;;;-139.71;69.13
3598;BME280;1813;52.016;8.714;2023-02-04T04:09:33;-16261.94;;;-139.71;68.90
3598;BME280;1813;52.016;8.714;2023-02-04T04:12:07;-16261.94;;;-139.71;68.59
3598;BME280;1813;52.016;8.714;2023-02-04T04:14:44;-16261.94;;;-139.71;68.38
3598;BME280;1813;52.016;8.714;2023-02-04T04:17:17;-16261.94;;;-139.71;68.42
3598;BME280;1813;52.016;8.714;2023-02-04T04:19:51;-16261.94;;;-139.71;68.27
3598;BME280;1813;52.016;8.714;2023-02-04T04:22:25;-16261.94;;;-139.71;68.49
3598;BME280;1813;52.016;8.714;2023-02-04T04:24:59;-16261.94;;;-139.71;68.64
3598;BME280;1813;52.016;8.714;2023-02-04T04:27:33;-16261.94;;;-139.71;68.96
3598;BME280;1813;52.016;8.714;2023-02-04T04:30:11;-16261.94;;;-139.71;69.11
3598;BME280;1813;52.016;8.714;2023-02-04T04:32:45;-16261.94;;;-139.71;69.22
3598;BME280;1813;52.016;8.714;2023-02-04T04:35:18;-16261.94;;;-139.71;69.30
3598;BME280;1813;52.016;8.714;2023-02-04T04:37:52;-16261.94;;;-139.71;69.22
3598;BME280;1813;52.016;8.714;2023-02-04T04:40:26;-16261.94;;;-139.71;69.23
3598;BME280;1813;52.016;8.714;2023-02-04T04:43:00;-16261.94;;;-139.71;69.10
3598;BME280;1813;52.016;8.714;2023-02-04T04:45:36;-16261.94;;;-139.71;69.00
3598;BME280;1813;52.016;8.714;2023-02-04T04:48:10;-16261.94;;;-139.71;69.05
3598;BME280;1813;52.016;8.714;2023-02-04T04:50:43;-16261.94;;;-139.71;69.24
3598;BME280;1813;52.016;8.714;2023-02-04T04:53:18;-16261.94;;;-139.71;69.75
3598;BME280;1813;52.016;8.714;2023-02-04T04:55:52;-16261.94;;;-139.71;70.21
3598;BME280;1813;52.016;8.714;2023-02-04T04:58:26;-16261.94;;;-139.71;70.71
3598;BME280;1813;52.016;8.714;2023-02-04T05:01:02;-16261.94;;;-139.71;71.09
3598;BME280;1813;52.016;8.714;2023-02-04T05:03:36;-16261.94;;;-139.71;71.35
3598;BME280;1813;52.016;8.714;2023-02-04T05:06:10;-16261.94;;;-139.71;71.51
3598;BME280;1813;52.016;8.714;2023-02-04T05:08:44;-16261.94;;;-139.71;71.87
3598;BME280;1813;52.016;8.714;2023-02-04T05:11:18;-16261.94;;;-139.71;72.25
3598;BME280;1813;52.016;8.714;2023-02-04T05:13:52;-16261.94;;;-139.71;72.37
3598;BME280;1813;52.016;8.714;2023-02-04T05:16:28;-16261.94;;;-139.71;72.39
3598;BME280;1813;52.016;8.714;2023-02-04T05:19:02;-16261.94;;;-139.71;72.75
3598;BME280;1813;52.016;8.714;2023-02-04T05:21:36;-16261.94;;;-139.71;72.86
3598;BME280;1813;52.016;8.714;2023-02-04T05:24:09;-16261.94;;;-139.71;72.99
3598;BME280;1813;52.016;8.714;2023-02-04T05:26:44;-16261.94;;;-139.71;72.98
3598;BME280;1813;52.016;8.714;2023-02-04T05:29:18;-16261.94;;;-139.71;73.04
3598;BME280;1813;52.016;8.714;2023-02-04T05:31:54;-16261.94;;;-139.71;73.11
3598;BME280;1813;52.016;8.714;2023-02-04T05:34:28;-16261.94;;;-139.71;73.13
3598;BME280;1813;52.016;8.714;2023-02-04T05:37:01;-16261.94;;;-139.71;73.10
3598;BME280;1813;52.016;8.714;2023-02-04T05:39:35;-16261.94;;;-139.71;73.21
3598;BME280;1813;52.016;8.714;2023-02-04T05:42:09;-16261.94;;;-139.71;73.24
3598;BME280;1813;52.016;8.714;2023-02-04T05:44:42;-16261.94;;;-139.71;73.29
3598;BME280;1813;52.016;8.714;2023-02-04T05:47:19;-16261.94;;;-139.71;73.41
3598;BME280;1813;52.016;8.714;2023-02-04T05:49:53;-16261.94;;;-139.71;73.41
3598;BME280;1813;52.016;8.714;2023-02-04T05:52:27;-16261.94;;;-139.71;73.42
3598;BME280;1813;52.016;8.714;2023-02-04T05:55:06;-16261.94;;;-139.71;73.24
3598;BME280;1813;52.016;8.714;2023-02-04T05:57:39;-16261.94;;;-139.71;73.19
3598;BME280;1813;52.016;8.714;2023-02-04T06:00:13;-16261.94;;;-139.71;73.29
3598;BME280;1813;52.016;8.714;2023-02-04T06:02:49;-16261.94;;;-139.71;73.08
3598;BME280;1813;52.016;8.714;2023-02-04T06:05:23;-16261.94;;;-139.71;72.94
3598;BME280;1813;52.016;8.714;2023-02-04T06:07:57;-16261.94;;;-139.71;72.69
3598;BME280;1813;52.016;8.714;2023-02-04T06:10:33;-16261.94;;;-139.71;72.59
3598;BME280;1813;52.016;8.714;2023-02-04T06:13:07;-16261.94;;;-139.71;72.59
3598;BME280;1813;52.016;8.714;2023-02-04T06:15:41;-16261.94;;;-139.71;72.56
3598;BME280;1813;52.016;8.714;2023-02-04T06:18:17;-16261.94;;;-139.71;72.60
3598;BME280;1813;52.016;8.714;2023-02-04T06:20:50;-16261.94;;;-139.71;72.59
3598;BME280;1813;52.016;8.714;2023-02-04T06:23:24;-16261.94;;;-139.71;72.66
3598;BME280;1813;52.016;8.714;2023-02-04T06:25:58;-16261.94;;;-139.71;72.72
3598;BME280;1813;52.016;8.714;2023-02-04T06:28:32;-16261.94;;;-139.71;72.47
3598;BME280;1813;52.016;8.714;2023-02-04T06:31:05;-16261.94;;;-139.71;72.30
3598;BME280;1813;52.016;8.714;2023-02-04T06:33:42;-16261.94;;;-139.71;72.17
3598;BME280;1813;52.016;8.714;2023-02-04T06:36:16;-16261.94;;;-139.71;72.30
3598;BME280;1813;52.016;8.714;2023-02-04T06:38:49;-16261.94;;;-139.71;72.03
3598;BME280;1813;52.016;8.714;2023-02-04T06:41:23;-16261.94;;;-139.71;72.02
3598;BME280;1813;52.016;8.714;2023-02-04T06:43:57;-16261.94;;;-139.71;71.68
3598;BME280;1813;52.016;8.714;2023-02-04T06:46:32;-16261.94;;;-139.71;71.41
3598;BME280;1813;52.016;8.714;2023-02-04T06:49:09;-16261.94;;;-139.71;70.85
3598;BME280;1813;52.016;8.714;2023-02-04T06:51:42;-16261.94;;;-139.71;70.25
3598;BME280;1813;52.016;8.714;2023-02-04T06:54:18;-16261.94;;;-139.71;70.16
3598;BME280;1813;52.016;8.714;2023-02-04T06:56:51;-16261.94;;;-139.71;70.43
3598;BME280;1813;52.016;8.714;2023-02-04T06:59:25;-16261.94;;;-139.71;70.52
3598;BME280;1813;52.016;8.714;2023-02-04T07:02:03;-16261.94;;;-139.71;70.60
3598;BME280;1813;52.016;8.714;2023-02-04T07:04:40;-16261.94;;;-139.71;70.59
3598;BME280;1813;52.016;8.714;2023-02-04T07:07:14;-16261.94;;;-139.71;70.65
3598;BME280;1813;52.016;8.714;2023-02-04T07:09:48;-16261.94;;;-139.71;70.55
3598;BME280;1813;52.016;8.714;2023-02-04T07:12:22;-16261.94;;;-139.71;70.31
3598;BME280;1813;52.016;8.714;2023-02-04T07:14:57;-16261.94;;;-139.71;70.52
3598;BME280;1813;52.016;8.714;2023-02-04T07:17:31;-16261.94;;;-139.71;70.72
3598;BME280;1813;52.016;8.714;2023-02-04T07:20:09;-16261.94;;;-139.71;71.02
3598;BME280;1813;52.016;8.714;2023-02-04T07:22:43;-16261.94;;;-139.71;70.49
3598;BME280;1813;52.016;8.714;2023-02-04T07:25:17;-16261.94;;;-139.71;70.65
3598;BME280;1813;52.016;8.714;2023-02-04T07:27:51;-16261.94;;;-139.71;70.87
3598;BME280;1813;52.016;8.714;2023-02-04T07:30:25;-16261.94;;;-139.71;70.96
3598;BME280;1813;52.016;8.714;2023-02-04T07:32:59;-16261.94;;;-139.71;70.92
3598;BME280;1813;52.016;8.714;2023-02-04T07:35:36;-16261.94;;;-139.71;70.77
3598;BME280;1813;52.016;8.714;2023-02-04T07:38:10;-16261.94;;;-139.71;70.41
3598;BME280;1813;52.016;8.714;2023-02-04T07:40:44;-16261.94;;;-139.71;70.15
3598;BME280;1813;52.016;8.714;2023-02-04T07:43:17;-16261.94;;;-139.71;70.06
3598;BME280;1813;52.016;8.714;2023-02-04T07:45:51;-16261.94;;;-139.71;70.06
3598;BME280;1813;52.016;8.714;2023-02-04T07:48:25;-16261.94;;;-139.71;69.97
3598;BME280;1813;52.016;8.714;2023-02-04T07:51:02;-16261.94;;;-139.71;70.11
3598;BME280;1813;52.016;8.714;2023-02-04T07:53:36;-16261.94;;;-139.71;70.47
3598;BME280;1813;52.016;8.714;2023-02-04T07:56:10;-16261.94;;;-139.71;70.30
3598;BME280;1813;52.016;8.714;2023-02-04T07:58:44;-16261.94;;;-139.71;70.15
3598;BME280;1813;52.016;8.714;2023-02-04T08:01:18;-16261.94;;;-139.71;70.33
3598;BME280;1813;52.016;8.714;2023-02-04T08:03:51;-16261.94;;;-139.71;70.69
3598;BME280;1813;52.016;8.714;2023-02-04T08:06:28;-16261.94;;;-139.71;70.82
3598;BME280;1813;52.016;8.714;2023-02-04T08:09:01;-16261.94;;;-139.71;71.04
3598;BME280;1813;52.016;8.714;2023-02-04T08:11:35;-16261.94;;;-139.71;71.16
3598;BME280;1813;52.016;8.714;2023-02-04T08:14:09;-16261.94;;;-139.71;71.05
3598;BME280;1813;52.016;8.714;2023-02-04T08:16:44;-16261.94;;;-139.71;70.67
3598;BME280;1813;52.016;8.714;2023-02-04T08:19:18;-16261.94;;;-139.71;71.12
3598;BME280;1813;52.016;8.714;2023-02-04T08:21:56;-16261.94;;;-139.71;71.63
3598;BME280;1813;52.016;8.714;2023-02-04T08:24:31;-16261.94;;;-139.71;72.47
3598;BME280;1813;52.016;8.714;2023-02-04T08:27:05;-16261.94;;;-139.71;73.17
3598;BME280;1813;52.016;8.714;2023-02-04T08:29:39;-16261.94;;;-139.71;72.52
3598;BME280;1813;52.016;8.714;2023-02-04T08:32:13;-16261.94;;;-139.71;71.25
3598;BME280;1813;52.016;8.714;2023-02-04T08:34:47;-16261.94;;;-139.71;70.30
3598;BME280;1813;52.016;8.714;2023-02-04T08:37:23;-16261.94;;;-139.71;70.53
3598;BME280;1813;52.016;8.714;2023-02-04T08:39:57;-16261.94;;;-139.71;69.91
3598;BME280;1813;52.016;8.714;2023-02-04T08:42:31;-16261.94;;;-139.71;67.82
3598;BME280;1813;52.016;8.714;2023-02-04T08:45:06;-16261.94;;;-139.71;66.80
3598;BME280;1813;52.016;8.714;2023-02-04T08:47:40;-16261.94;;;-139.71;67.13
3598;BME280;1813;52.016;8.714;2023-02-04T08:50:14;-16261.94;;;-139.71;67.67
3598;BME280;1813;52.016;8.714;2023-02-04T08:52:50;-16261.94;;;-139.71;66.74
3598;BME280;1813;52.016;8.714;2023-02-04T08:55:24;-16261.94;;;-139.71;66.30
3598;BME280;1813;52.016;8.714;2023-02-04T08:57:58;-16261.94;;;-139.71;65.48
3598;BME280;1813;52.016;8.714;2023-02-04T09:00:32;-16261.94;;;-139.71;66.40
3598;BME280;1813;52.016;8.714;2023-02-04T09:03:06;-16261.94;;;-139.71;68.02
3598;BME280;1813;52.016;8.714;2023-02-04T09:05:41;-16261.94;;;-139.71;66.72
3598;BME280;1813;52.016;8.714;2023-02-04T09:08:19;-16261.94;;;-139.71;65.40
3598;BME280;1813;52.016;8.714;2023-02-04T09:10:55;-16261.94;;;-139.71;66.62
3598;BME280;1813;52.016;8.714;2023-02-04T09:13:29;-16261.94;;;-139.71;66.80
3598;BME280;1813;52.016;8.714;2023-02-04T09:16:04;-16261.94;;;-139.71;65.63
3598;BME280;1813;52.016;8.714;2023-02-04T09:18:38;-16261.94;;;-139.71;64.91
3598;BME280;1813;52.016;8.714;2023-02-04T09:21:12;-16261.94;;;-139.71;64.45
3598;BME280;1813;52.016;8.714;2023-02-04T09:23:48;-16261.94;;;-139.71;63.31
3598;BME280;1813;52.016;8.714;2023-02-04T09:26:22;-16261.94;;;-139.71;61.76
3598;BME280;1813;52.016;8.714;2023-02-04T09:28:57;-16261.94;;;-139.71;61.14
3598;BME280;1813;52.016;8.714;2023-02-04T09:31:31;-16261.94;;;-139.71;60.96
3598;BME280;1813;52.016;8.714;2023-02-04T09:34:07;-16261.94;;;-139.71;60.21
3598;BME280;1813;52.016;8.714;2023-02-04T09:36:41;-16261.94;;;-139.71;59.16
3598;BME280;1813;52.016;8.714;2023-02-04T09:39:17;-16261.94;;;-139.71;60.32
3598;BME280;1813;52.016;8.714;2023-02-04T09:41:51;-16261.94;;;-139.71;59.98
3598;BME280;1813;52.016;8.714;2023-02-04T09:44:28;-16261.94;;;-139.71;58.02
3598;BME280;1813;52.016;8.714;2023-02-04T09:47:02;-16261.94;;;-139.71;57.30
3598;BME280;1813;52.016;8.714;2023-02-04T09:49:36;-16261.94;;;-139.71;57.24
3598;BME280;1813;52.016;8.714;2023-02-04T09:52:11;-16261.94;;;-139.71;57.08
3598;BME280;1813;52.016;8.714;2023-02-04T09:54:49;-16261.94;;;-139.71;56.45
3598;BME280;1813;52.016;8.714;2023-02-04T09:57:23;-16261.94;;;-139.71;55.00
3598;BME280;1813;52.016;8.714;2023-02-04T09:59:57;-16261.94;;;-139.71;53.96
3598;BME280;1813;52.016;8.714;2023-02-04T10:02:33;-16261.94;;;-139.71;52.44
3598;BME280;1813;52.016;8.714;2023-02-04T10:05:12;-16261.94;;;-139.71;51.54
3598;BME280;1813;52.016;8.714;2023-02-04T10:07:47;-16261.94;;;-139.71;50.70
3598;BME280;1813;52.016;8.714;2023-02-04T10:10:24;-16261.94;;;-139.71;50.24
3598;BME280;1813;52.016;8.714;2023-02-04T10:13:01;-16261.94;;;-139.71;49.12
3598;BME280;1813;52.016;8.714;2023-02-04T10:15:38;-16261.94;;;-139.71;48.66
3598;BME280;1813;52.016;8.714;2023-02-04T10:18:17;-16261.94;;;-139.71;48.81
3598;BME280;1813;52.016;8.714;2023-02-04T10:20:54;-16261.94;;;-139.71;48.38
3598;BME280;1813;52.016;8.714;2023-02-04T10:23:30;-16261.94;;;-139.71;47.54
3598;BME280;1813;52.016;8.714;2023-02-04T10:26:09;-16261.94;;;-139.71;47.12
3598;BME280;1813;52.016;8.714;2023-02-04T10:28:43;-16261.94;;;-139.71;46.72
3598;BME280;1813;52.016;8.714;2023-02-04T10:31:31;-16261.94;;;-139.71;45.77
3598;BME280;1813;52.016;8.714;2023-02-04T10:34:12;-16261.94;;;-139.71;45.15
3598;BME280;1813;52.016;8.714;2023-02-04T10:36:49;-16261.94;;;-139.71;44.70
3598;BME280;1813;52.016;8.714;2023-02-04T10:39:25;-16261.94;;;-139.71;45.24
3598;BME280;1813;52.016;8.714;2023-02-04T10:42:04;-16261.94;;;-139.71;44.94
3598;BME280;1813;52.016;8.714;2023-02-04T10:44:45;-16261.94;;;-139.71;45.02
3598;BME280;1813;52.016;8.714;2023-02-04T10:47:21;-16261.94;;;-139.71;44.78
3598;BME280;1813;52.016;8.714;2023-02-04T10:49:59;-16261.94;;;-139.71;44.84
3598;BME280;1813;52.016;8.714;2023-02-04T10:52:39;-16261.94;;;-139.71;44.00
3598;BME280;1813;52.016;8.714;2023-02-04T10:55:17;-16261.94;;;-139.71;43.54
3598;BME280;1813;52.016;8.714;2023-02-04T10:57:56;-16261.94;;;-139.71;42.84
3598;BME280;1813;52.016;8.714;2023-02-04T11:00:32;-16261.94;;;-139.71;42.83
3598;BME280;1813;52.016;8.714;2023-02-04T11:03:10;-16261.94;;;-139.71;43.77
3598;BME280;1813;52.016;8.714;2023-02-04T11:05:44;-16261.94;;;-139.71;45.02
3598;BME280;1813;52.016;8.714;2023-02-04T11:08:21;-16261.94;;;-139.71;45.59
3598;BME280;1813;52.016;8.714;2023-02-04T11:11:00;-16261.94;;;-139.71;45.65
3598;BME280;1813;52.016;8.714;2023-02-04T11:13:44;-16261.94;;;-139.71;44.72
3598;BME280;1813;52.016;8.714;2023-02-04T11:16:31;-16261.94;;;-139.71;44.92
3598;BME280;1813;52.016;8.714;2023-02-04T11:19:10;-16261.94;;;-139.71;44.88
3598;BME280;1813;52.016;8.714;2023-02-04T11:21:46;-16261.94;;;-139.71;45.33
3598;BME280;1813;52.016;8.714;2023-02-04T11:24:24;-16261.94;;;-139.71;45.69
3598;BME280;1813;52.016;8.714;2023-02-04T11:27:05;-16261.94;;;-139.71;45.68
3598;BME280;1813;52.016;8.714;2023-02-04T11:29:42;-16261.94;;;-139.71;45.50
3598;BME280;1813;52.016;8.714;2023-02-04T11:32:30;-16261.94;;;-139.71;44.24
3598;BME280;1813;52.016;8.714;2023-02-04T11:35:19;-16261.94;;;-139.71;43.67
3598;BME280;1813;52.016;8.714;2023-02-04T11:37:54;-16261.94;;;-139.71;43.70
3598;BME280;1813;52.016;8.714;2023-02-04T11:40:30;-16261.94;;;-139.71;43.26
3598;BME280;1813;52.016;8.714;2023-02-04T11:43:10;-16261.94;;;-139.71;42.47
3598;BME280;1813;52.016;8.714;2023-02-04T11:46:00;-16261.94;;;-139.71;42.06
3598;BME280;1813;52.016;8.714;2023-02-04T11:48:35;-16261.94;;;-139.71;42.33
3598;BME280;1813;52.016;8.714;2023-02-04T11:51:11;-16261.94;;;-139.71;41.70
3598;BME280;1813;52.016;8.714;2023-02-04T11:53:50;-16261.94;;;-139.71;43.18
3598;BME280;1813;52.016;8.714;2023-02-04T11:56:27;-16261.94;;;-139.71;43.74
3598;BME280;1813;52.016;8.714;2023-02-04T11:59:01;-16261.94;;;-139.71;43.52
3598;BME280;1813;52.016;8.714;2023-02-04T12:01:38;-16261.94;;;-139.71;43.04
3598;BME280;1813;52.016;8.714;2023-02-04T12:04:24;-16261.94;;;-139.71;42.53
3598;BME280;1813;52.016;8.714;2023-02-04T12:06:59;-16261.94;;;-139.71;42.48
3598;BME280;1813;52.016;8.714;2023-02-04T12:09:46;-16261.94;;;-139.71;41.89
3598;BME280;1813;52.016;8.714;2023-02-04T12:12:26;-16261.94;;;-139.71;42.44
3598;BME280;1813;52.016;8.714;2023-02-04T12:15:07;-16261.94;;;-139.71;41.67
3598;BME280;1813;52.016;8.714;2023-02-04T12:17:59;-16261.94;;;-139.71;41.01
3598;BME280;1813;52.016;8.714;2023-02-04T12:20:33;-16261.94;;;-139.71;41.55
3598;BME280;1813;52.016;8.714;2023-02-04T12:23:07;-16261.94;;;-139.71;41.47
3598;BME280;1813;52.016;8.714;2023-02-04T12:25:41;-16261.94;;;-139.71;40.88
3598;BME280;1813;52.016;8.714;2023-02-04T12:28:15;-16261.94;;;-139.71;40.57
3598;BME280;1813;52.016;8.714;2023-02-04T12:30:49;-16261.94;;;-139.71;39.59
3598;BME280;1813;52.016;8.714;2023-02-04T12:33:26;-16261.94;;;-139.71;39.26
3598;BME280;1813;52.016;8.714;2023-02-04T12:36:00;-16261.94;;;-139.71;39.75
3598;BME280;1813;52.016;8.714;2023-02-04T12:38:34;-16261.94;;;-139.71;39.40
3598;BME280;1813;52.016;8.714;2023-02-04T12:41:09;-16261.94;;;-139.71;40.05
3598;BME280;1813;52.016;8.714;2023-02-04T12:43:43;-16261.94;;;-139.71;39.38
3598;BME280;1813;52.016;8.714;2023-02-04T12:46:20;-16261.94;;;-139.71;38.52
3598;BME280;1813;52.016;8.714;2023-02-04T12:48:57;-16261.94;;;-139.71;38.33
3598;BME280;1813;52.016;8.714;2023-02-04T12:51:31;-16261.94;;;-139.71;38.50
3598;BME280;1813;52.016;8.714;2023-02-04T12:54:05;-16261.94;;;-139.71;38.42
3598;BME280;1813;52.016;8.714;2023-02-04T12:56:39;-16261.94;;;-139.71;38.70
3598;BME280;1813;52.016;8.714;2023-02-04T12:59:13;-16261.94;;;-139.71;38.52
3598;BME280;1813;52.016;8.714;2023-02-04T13:01:47;-16261.94;;;-139.71;37.74
3598;BME280;1813;52.016;8.714;2023-02-04T13:04:24;-16261.94;;;-139.71;38.03
3598;BME280;1813;52.016;8.714;2023-02-04T13:06:58;-16261.94;;;-139.71;38.83
3598;BME280;1813;52.016;8.714;2023-02-04T13:09:32;-16261.94;;;-139.71;38.40
3598;BME280;1813;52.016;8.714;2023-02-04T13:12:06;-16261.94;;;-139.71;38.53
3598;BME280;1813;52.016;8.714;2023-02-04T13:14:43;-16261.94;;;-139.71;37.81
3598;BME280;1813;52.016;8.714;2023-02-04T13:17:17;-16261.94;;;-139.71;38.86
3598;BME280;1813;52.016;8.714;2023-02-04T13:19:54;-16261.94;;;-139.71;38.68
3598;BME280;1813;52.016;8.714;2023-02-04T13:22:28;-16261.94;;;-139.71;39.12
3598;BME280;1813;52.016;8.714;2023-02-04T13:25:02;-16261.94;;;-139.71;39.11
3598;BME280;1813;52.016;8.714;2023-02-04T13:27:36;-16261.94;;;-139.71;38.81
3598;BME280;1813;52.016;8.714;2023-02-04T13:30:12;-16261.94;;;-139.71;39.38
3598;BME280;1813;52.016;8.714;2023-02-04T13:32:46;-16261.94;;;-139.71;39.80